sensor_id;sensor_type;location;lat;lon;timestamp;P1;durP1;ratioP1;P2;durP2;ratioP2
30287;SDS011;17103;48.316;11.558;2022-12-24T00:00:10;1.63;;;0.20;;
30287;SDS011;17103;48.316;11.558;2022-12-24T00:02:36;2.35;;;0.30;;
30287;SDS011;17103;48.316;11.558;2022-12-24T00:05:02;0.77;;;0.43;;
30287;SDS011;17103;48.316;11.558;2022-12-24T00:07:42;2.25;;;0.35;;
30287;SDS011;17103;48.316;11.558;2022-12-24T00:10:08;0.63;;;0.20;;
30287;SDS011;17103;48.316;11.558;2022-12-24T00:15:06;0.70;;;0.28;;
30287;SDS011;17103;48.316;11.558;2022-12-24T00:20:04;1.63;;;0.20;;
30287;SDS011;17103;48.316;11.558;2022-12-24T00:22:37;0.30;;;0.20;;
30287;SDS011;17103;48.316;11.558;2022-12-24T00:25:03;0.25;;;0.00;;
30287;SDS011;17103;48.316;11.558;2022-12-24T00:27:29;0.50;;;0.13;;
30287;SDS011;17103;48.316;11.558;2022-12-24T00:29:56;0.80;;;0.20;;
30287;SDS011;17103;48.316;11.558;2022-12-24T00:34:50;1.35;;;0.20;;
30287;SDS011;17103;48.316;11.558;2022-12-24T00:37:19;1.10;;;0.10;;
30287;SDS011;17103;48.316;11.558;2022-12-24T00:39:48;0.85;;;0.32;;
30287;SDS011;17103;48.316;11.558;2022-12-24T00:42:13;0.75;;;0.30;;
30287;SDS011;17103;48.316;11.558;2022-12-24T00:44:41;1.48;;;0.63;;
30287;SDS011;17103;48.316;11.558;2022-12-24T00:47:06;0.98;;;0.20;;
30287;SDS011;17103;48.316;11.558;2022-12-24T00:49:49;0.40;;;0.20;;
30287;SDS011;17103;48.316;11.558;2022-12-24T00:52:15;0.82;;;0.20;;
30287;SDS011;17103;48.316;11.558;2022-12-24T00:54:40;1.23;;;0.25;;
30287;SDS011;17103;48.316;11.558;2022-12-24T00:57:06;1.27;;;0.22;;
30287;SDS011;17103;48.316;11.558;2022-12-24T00:59:31;2.05;;;0.20;;
30287;SDS011;17103;48.316;11.558;2022-12-24T01:01:57;2.33;;;0.17;;
30287;SDS011;17103;48.316;11.558;2022-12-24T01:04:23;0.43;;;0.20;;
30287;SDS011;17103;48.316;11.558;2022-12-24T01:07:10;0.75;;;0.20;;
30287;SDS011;17103;48.316;11.558;2022-12-24T01:09:36;0.50;;;0.20;;
30287;SDS011;17103;48.316;11.558;2022-12-24T01:14:39;1.55;;;0.40;;
30287;SDS011;17103;48.316;11.558;2022-12-24T01:17:04;0.52;;;0.30;;
30287;SDS011;17103;48.316;11.558;2022-12-24T01:19:31;0.82;;;0.30;;
30287;SDS011;17103;48.316;11.558;2022-12-24T01:22:00;1.48;;;0.50;;
30287;SDS011;17103;48.316;11.558;2022-12-24T01:24:26;1.85;;;0.30;;
30287;SDS011;17103;48.316;11.558;2022-12-24T01:26:57;0.55;;;0.20;;
30287;SDS011;17103;48.316;11.558;2022-12-24T01:29:25;0.47;;;0.20;;
30287;SDS011;17103;48.316;11.558;2022-12-24T01:32:05;0.88;;;0.30;;
30287;SDS011;17103;48.316;11.558;2022-12-24T01:34:37;0.90;;;0.20;;
30287;SDS011;17103;48.316;11.558;2022-12-24T01:37:03;1.42;;;0.30;;
30287;SDS011;17103;48.316;11.558;2022-12-24T01:39:29;3.03;;;0.35;;
30287;SDS011;17103;48.316;11.558;2022-12-24T01:41:55;0.30;;;0.20;;
30287;SDS011;17103;48.316;11.558;2022-12-24T01:44:41;0.30;;;0.20;;
30287;SDS011;17103;48.316;11.558;2022-12-24T01:52:57;0.70;;;0.20;;
30287;SDS011;17103;48.316;11.558;2022-12-24T01:55:22;0.52;;;0.32;;
30287;SDS011;17103;48.316;11.558;2022-12-24T01:57:55;0.88;;;0.30;;
30287;SDS011;17103;48.316;11.558;2022-12-24T02:00:23;1.48;;;0.20;;
30287;SDS011;17103;48.316;11.558;2022-12-24T02:02:52;1.05;;;0.25;;
30287;SDS011;17103;48.316;11.558;2022-12-24T02:05:27;1.00;;;0.20;;
30287;SDS011;17103;48.316;11.558;2022-12-24T02:08:07;1.25;;;0.30;;
30287;SDS011;17103;48.316;11.558;2022-12-24T02:13:08;0.25;;;0.20;;
30287;SDS011;17103;48.316;11.558;2022-12-24T02:15:41;1.15;;;0.50;;
30287;SDS011;17103;48.316;11.558;2022-12-24T02:30:19;1.48;;;0.20;;
30287;SDS011;17103;48.316;11.558;2022-12-24T02:36:03;2.33;;;0.30;;
30287;SDS011;17103;48.316;11.558;2022-12-24T02:41:14;2.47;;;0.50;;
30287;SDS011;17103;48.316;11.558;2022-12-24T02:43:47;0.20;;;0.20;;
30287;SDS011;17103;48.316;11.558;2022-12-24T02:46:21;0.30;;;0.20;;
30287;SDS011;17103;48.316;11.558;2022-12-24T02:48:50;0.47;;;0.20;;
30287;SDS011;17103;48.316;11.558;2022-12-24T02:51:16;1.17;;;0.40;;
30287;SDS011;17103;48.316;11.558;2022-12-24T03:02:10;1.15;;;0.20;;
30287;SDS011;17103;48.316;11.558;2022-12-24T03:05:12;2.55;;;0.30;;
30287;SDS011;17103;48.316;11.558;2022-12-24T03:10:51;2.85;;;0.50;;
30287;SDS011;17103;48.316;11.558;2022-12-24T03:16:23;2.00;;;0.65;;
30287;SDS011;17103;48.316;11.558;2022-12-24T03:18:58;2.38;;;0.30;;
30287;SDS011;17103;48.316;11.558;2022-12-24T03:21:26;1.00;;;0.28;;
30287;SDS011;17103;48.316;11.558;2022-12-24T03:24:09;0.90;;;0.40;;
30287;SDS011;17103;48.316;11.558;2022-12-24T03:26:39;1.67;;;0.20;;
30287;SDS011;17103;48.316;11.558;2022-12-24T03:29:06;2.35;;;0.35;;
30287;SDS011;17103;48.316;11.558;2022-12-24T03:31:39;1.02;;;0.25;;
30287;SDS011;17103;48.316;11.558;2022-12-24T03:34:11;1.20;;;0.28;;
30287;SDS011;17103;48.316;11.558;2022-12-24T03:36:38;1.70;;;0.30;;
30287;SDS011;17103;48.316;11.558;2022-12-24T03:41:43;1.42;;;0.30;;
30287;SDS011;17103;48.316;11.558;2022-12-24T03:44:19;0.60;;;0.20;;
30287;SDS011;17103;48.316;11.558;2022-12-24T03:46:45;0.75;;;0.30;;
30287;SDS011;17103;48.316;11.558;2022-12-24T03:49:13;2.47;;;0.20;;
30287;SDS011;17103;48.316;11.558;2022-12-24T03:51:38;3.03;;;0.30;;
30287;SDS011;17103;48.316;11.558;2022-12-24T03:54:04;1.48;;;0.30;;
30287;SDS011;17103;48.316;11.558;2022-12-24T03:56:29;1.65;;;0.52;;
30287;SDS011;17103;48.316;11.558;2022-12-24T03:58:58;2.28;;;0.68;;
30287;SDS011;17103;48.316;11.558;2022-12-24T04:06:35;1.73;;;0.30;;
30287;SDS011;17103;48.316;11.558;2022-12-24T04:09:09;4.78;;;0.68;;
30287;SDS011;17103;48.316;11.558;2022-12-24T04:11:41;1.33;;;0.40;;
30287;SDS011;17103;48.316;11.558;2022-12-24T04:14:08;3.58;;;0.30;;
30287;SDS011;17103;48.316;11.558;2022-12-24T04:16:48;3.40;;;0.63;;
30287;SDS011;17103;48.316;11.558;2022-12-24T04:19:13;0.75;;;0.30;;
30287;SDS011;17103;48.316;11.558;2022-12-24T04:21:39;1.00;;;0.40;;
30287;SDS011;17103;48.316;11.558;2022-12-24T04:24:12;1.95;;;0.47;;
30287;SDS011;17103;48.316;11.558;2022-12-24T04:29:15;0.90;;;0.30;;
30287;SDS011;17103;48.316;11.558;2022-12-24T04:34:10;2.55;;;0.40;;
30287;SDS011;17103;48.316;11.558;2022-12-24T04:36:42;3.10;;;0.63;;
30287;SDS011;17103;48.316;11.558;2022-12-24T04:44:21;1.58;;;0.52;;
30287;SDS011;17103;48.316;11.558;2022-12-24T04:47:00;1.00;;;0.60;;
30287;SDS011;17103;48.316;11.558;2022-12-24T04:49:34;0.85;;;0.30;;
30287;SDS011;17103;48.316;11.558;2022-12-24T04:52:01;2.45;;;0.50;;
30287;SDS011;17103;48.316;11.558;2022-12-24T04:54:29;1.55;;;0.50;;
30287;SDS011;17103;48.316;11.558;2022-12-24T04:59:33;1.70;;;0.55;;
30287;SDS011;17103;48.316;11.558;2022-12-24T05:07:01;0.90;;;0.40;;
30287;SDS011;17103;48.316;11.558;2022-12-24T05:09:26;0.65;;;0.30;;
30287;SDS011;17103;48.316;11.558;2022-12-24T05:11:57;0.90;;;0.40;;
30287;SDS011;17103;48.316;11.558;2022-12-24T05:14:24;3.00;;;0.50;;
30287;SDS011;17103;48.316;11.558;2022-12-24T05:16:54;2.97;;;0.40;;
30287;SDS011;17103;48.316;11.558;2022-12-24T05:19:21;1.50;;;0.25;;
30287;SDS011;17103;48.316;11.558;2022-12-24T05:21:49;3.30;;;0.40;;
30287;SDS011;17103;48.316;11.558;2022-12-24T05:24:36;1.10;;;0.43;;
30287;SDS011;17103;48.316;11.558;2022-12-24T05:27:20;1.13;;;0.60;;
30287;SDS011;17103;48.316;11.558;2022-12-24T05:29:57;1.60;;;0.50;;
30287;SDS011;17103;48.316;11.558;2022-12-24T05:32:23;4.53;;;0.60;;
30287;SDS011;17103;48.316;11.558;2022-12-24T05:34:49;1.75;;;0.50;;
30287;SDS011;17103;48.316;11.558;2022-12-24T05:37:15;1.27;;;0.40;;
30287;SDS011;17103;48.316;11.558;2022-12-24T05:39:40;0.98;;;0.40;;
30287;SDS011;17103;48.316;11.558;2022-12-24T05:42:06;2.67;;;0.45;;
30287;SDS011;17103;48.316;11.558;2022-12-24T05:44:31;2.38;;;0.30;;
30287;SDS011;17103;48.316;11.558;2022-12-24T05:47:11;1.27;;;0.40;;
30287;SDS011;17103;48.316;11.558;2022-12-24T05:49:37;0.82;;;0.40;;
30287;SDS011;17103;48.316;11.558;2022-12-24T05:52:06;3.22;;;0.70;;
30287;SDS011;17103;48.316;11.558;2022-12-24T05:54:31;3.47;;;0.65;;
30287;SDS011;17103;48.316;11.558;2022-12-24T05:57:14;3.42;;;1.10;;
30287;SDS011;17103;48.316;11.558;2022-12-24T06:02:17;3.53;;;0.90;;
30287;SDS011;17103;48.316;11.558;2022-12-24T06:07:24;1.70;;;0.30;;
30287;SDS011;17103;48.316;11.558;2022-12-24T06:09:53;3.92;;;0.80;;
30287;SDS011;17103;48.316;11.558;2022-12-24T06:12:34;1.60;;;0.25;;
30287;SDS011;17103;48.316;11.558;2022-12-24T06:14:59;2.58;;;0.60;;
30287;SDS011;17103;48.316;11.558;2022-12-24T06:17:25;1.92;;;0.68;;
30287;SDS011;17103;48.316;11.558;2022-12-24T06:19:56;1.35;;;0.40;;
30287;SDS011;17103;48.316;11.558;2022-12-24T06:22:22;0.68;;;0.52;;
30287;SDS011;17103;48.316;11.558;2022-12-24T06:25:01;1.00;;;0.32;;
30287;SDS011;17103;48.316;11.558;2022-12-24T06:27:37;1.77;;;0.32;;
30287;SDS011;17103;48.316;11.558;2022-12-24T06:32:36;0.82;;;0.30;;
30287;SDS011;17103;48.316;11.558;2022-12-24T06:35:16;3.45;;;0.55;;
30287;SDS011;17103;48.316;11.558;2022-12-24T06:37:41;2.90;;;0.32;;
30287;SDS011;17103;48.316;11.558;2022-12-24T06:40:19;2.05;;;0.60;;
30287;SDS011;17103;48.316;11.558;2022-12-24T06:42:46;1.65;;;0.93;;
30287;SDS011;17103;48.316;11.558;2022-12-24T06:45:11;1.67;;;0.52;;
30287;SDS011;17103;48.316;11.558;2022-12-24T06:47:42;0.88;;;0.40;;
30287;SDS011;17103;48.316;11.558;2022-12-24T06:52:42;0.57;;;0.40;;
30287;SDS011;17103;48.316;11.558;2022-12-24T06:55:14;1.75;;;0.40;;
30287;SDS011;17103;48.316;11.558;2022-12-24T06:57:43;1.65;;;0.50;;
30287;SDS011;17103;48.316;11.558;2022-12-24T07:00:09;2.28;;;0.65;;
30287;SDS011;17103;48.316;11.558;2022-12-24T07:02:41;2.78;;;0.60;;
30287;SDS011;17103;48.316;11.558;2022-12-24T07:05:08;1.63;;;0.40;;
30287;SDS011;17103;48.316;11.558;2022-12-24T07:12:52;1.90;;;0.30;;
30287;SDS011;17103;48.316;11.558;2022-12-24T07:15:23;0.82;;;0.32;;
30287;SDS011;17103;48.316;11.558;2022-12-24T07:17:56;3.05;;;0.63;;
30287;SDS011;17103;48.316;11.558;2022-12-24T07:20:28;4.13;;;0.60;;
30287;SDS011;17103;48.316;11.558;2022-12-24T07:22:53;1.77;;;0.40;;
30287;SDS011;17103;48.316;11.558;2022-12-24T07:25:22;1.58;;;0.40;;
30287;SDS011;17103;48.316;11.558;2022-12-24T07:27:48;1.63;;;0.55;;
30287;SDS011;17103;48.316;11.558;2022-12-24T07:30:17;2.78;;;0.40;;
30287;SDS011;17103;48.316;11.558;2022-12-24T07:32:45;2.38;;;0.95;;
30287;SDS011;17103;48.316;11.558;2022-12-24T07:35:23;2.17;;;0.50;;
30287;SDS011;17103;48.316;11.558;2022-12-24T07:37:49;3.03;;;0.50;;
30287;SDS011;17103;48.316;11.558;2022-12-24T07:40:15;1.85;;;0.40;;
30287;SDS011;17103;48.316;11.558;2022-12-24T07:42:40;1.80;;;0.40;;
30287;SDS011;17103;48.316;11.558;2022-12-24T07:45:07;2.67;;;0.50;;
30287;SDS011;17103;48.316;11.558;2022-12-24T07:47:35;1.25;;;0.65;;
30287;SDS011;17103;48.316;11.558;2022-12-24T07:50:01;2.58;;;0.50;;
30287;SDS011;17103;48.316;11.558;2022-12-24T07:52:29;1.42;;;0.50;;
30287;SDS011;17103;48.316;11.558;2022-12-24T07:54:56;2.15;;;0.80;;
30287;SDS011;17103;48.316;11.558;2022-12-24T07:57:21;1.33;;;0.43;;
30287;SDS011;17103;48.316;11.558;2022-12-24T08:02:29;2.08;;;0.50;;
30287;SDS011;17103;48.316;11.558;2022-12-24T08:04:58;3.50;;;0.70;;
30287;SDS011;17103;48.316;11.558;2022-12-24T08:07:24;2.80;;;0.88;;
30287;SDS011;17103;48.316;11.558;2022-12-24T08:09:51;3.35;;;0.43;;
30287;SDS011;17103;48.316;11.558;2022-12-24T08:12:22;4.20;;;0.45;;
30287;SDS011;17103;48.316;11.558;2022-12-24T08:14:48;1.83;;;0.47;;
30287;SDS011;17103;48.316;11.558;2022-12-24T08:19:49;4.15;;;0.50;;
30287;SDS011;17103;48.316;11.558;2022-12-24T08:22:17;3.15;;;0.43;;
30287;SDS011;17103;48.316;11.558;2022-12-24T08:24:45;2.22;;;0.50;;
30287;SDS011;17103;48.316;11.558;2022-12-24T08:27:21;2.00;;;0.85;;
30287;SDS011;17103;48.316;11.558;2022-12-24T08:30:00;3.28;;;0.70;;
30287;SDS011;17103;48.316;11.558;2022-12-24T08:32:27;6.45;;;1.25;;
30287;SDS011;17103;48.316;11.558;2022-12-24T08:34:54;4.45;;;1.30;;
30287;SDS011;17103;48.316;11.558;2022-12-24T08:37:23;2.63;;;1.33;;
30287;SDS011;17103;48.316;11.558;2022-12-24T08:39:57;5.45;;;1.63;;
30287;SDS011;17103;48.316;11.558;2022-12-24T08:42:25;3.40;;;1.23;;
30287;SDS011;17103;48.316;11.558;2022-12-24T08:44:51;4.88;;;0.95;;
30287;SDS011;17103;48.316;11.558;2022-12-24T08:50:06;3.20;;;1.08;;
30287;SDS011;17103;48.316;11.558;2022-12-24T08:52:33;2.58;;;0.93;;
30287;SDS011;17103;48.316;11.558;2022-12-24T08:55:13;7.18;;;1.50;;
30287;SDS011;17103;48.316;11.558;2022-12-24T08:57:41;4.00;;;0.90;;
30287;SDS011;17103;48.316;11.558;2022-12-24T09:00:15;3.20;;;0.68;;
30287;SDS011;17103;48.316;11.558;2022-12-24T09:02:57;1.35;;;0.50;;
30287;SDS011;17103;48.316;11.558;2022-12-24T09:05:22;2.47;;;0.60;;
30287;SDS011;17103;48.316;11.558;2022-12-24T09:08:03;2.70;;;1.90;;
30287;SDS011;17103;48.316;11.558;2022-12-24T09:10:34;4.10;;;1.35;;
30287;SDS011;17103;48.316;11.558;2022-12-24T09:13:03;1.48;;;0.52;;
30287;SDS011;17103;48.316;11.558;2022-12-24T09:15:36;3.55;;;0.70;;
30287;SDS011;17103;48.316;11.558;2022-12-24T09:18:12;3.20;;;0.90;;
30287;SDS011;17103;48.316;11.558;2022-12-24T09:23:36;2.08;;;0.63;;
30287;SDS011;17103;48.316;11.558;2022-12-24T09:26:08;2.50;;;0.65;;
30287;SDS011;17103;48.316;11.558;2022-12-24T09:28:39;1.40;;;0.40;;
30287;SDS011;17103;48.316;11.558;2022-12-24T09:31:16;1.67;;;0.40;;
30287;SDS011;17103;48.316;11.558;2022-12-24T09:33:44;1.23;;;0.85;;
30287;SDS011;17103;48.316;11.558;2022-12-24T09:36:19;2.67;;;0.60;;
30287;SDS011;17103;48.316;11.558;2022-12-24T09:38:53;1.65;;;0.70;;
30287;SDS011;17103;48.316;11.558;2022-12-24T09:47:02;1.48;;;0.30;;
30287;SDS011;17103;48.316;11.558;2022-12-24T09:49:36;2.00;;;0.50;;
30287;SDS011;17103;48.316;11.558;2022-12-24T09:52:08;1.77;;;0.30;;
30287;SDS011;17103;48.316;11.558;2022-12-24T10:00:22;0.80;;;0.40;;
30287;SDS011;17103;48.316;11.558;2022-12-24T10:02:53;2.60;;;0.52;;
30287;SDS011;17103;48.316;11.558;2022-12-24T10:11:53;0.43;;;0.30;;
30287;SDS011;17103;48.316;11.558;2022-12-24T10:17:21;1.73;;;0.40;;
30287;SDS011;17103;48.316;11.558;2022-12-24T10:23:06;1.63;;;0.22;;
30287;SDS011;17103;48.316;11.558;2022-12-24T10:28:28;1.20;;;0.30;;
30287;SDS011;17103;48.316;11.558;2022-12-24T10:31:04;0.93;;;0.38;;
30287;SDS011;17103;48.316;11.558;2022-12-24T10:36:41;4.57;;;0.98;;
30287;SDS011;17103;48.316;11.558;2022-12-24T10:39:11;3.17;;;0.55;;
30287;SDS011;17103;48.316;11.558;2022-12-24T10:41:52;3.00;;;1.05;;
30287;SDS011;17103;48.316;11.558;2022-12-24T10:46:52;2.42;;;0.93;;
30287;SDS011;17103;48.316;11.558;2022-12-24T10:52:26;2.45;;;0.70;;
30287;SDS011;17103;48.316;11.558;2022-12-24T10:57:59;1.08;;;0.30;;
30287;SDS011;17103;48.316;11.558;2022-12-24T11:05:38;1.75;;;0.30;;
30287;SDS011;17103;48.316;11.558;2022-12-24T11:08:15;2.10;;;0.43;;
30287;SDS011;17103;48.316;11.558;2022-12-24T11:14:00;1.83;;;0.30;;
30287;SDS011;17103;48.316;11.558;2022-12-24T11:16:32;1.27;;;0.73;;
30287;SDS011;17103;48.316;11.558;2022-12-24T11:19:02;4.00;;;0.40;;
30287;SDS011;17103;48.316;11.558;2022-12-24T11:21:41;0.93;;;0.30;;
30287;SDS011;17103;48.316;11.558;2022-12-24T11:26:51;0.73;;;0.20;;
30287;SDS011;17103;48.316;11.558;2022-12-24T11:34:48;2.13;;;0.40;;
30287;SDS011;17103;48.316;11.558;2022-12-24T11:37:21;3.42;;;0.50;;
30287;SDS011;17103;48.316;11.558;2022-12-24T11:39:52;3.33;;;0.68;;
30287;SDS011;17103;48.316;11.558;2022-12-24T11:45:21;1.42;;;0.40;;
30287;SDS011;17103;48.316;11.558;2022-12-24T11:47:50;2.95;;;0.70;;
30287;SDS011;17103;48.316;11.558;2022-12-24T11:50:24;2.03;;;0.60;;
30287;SDS011;17103;48.316;11.558;2022-12-24T11:53:04;3.38;;;0.95;;
30287;SDS011;17103;48.316;11.558;2022-12-24T11:58:19;1.17;;;0.38;;
30287;SDS011;17103;48.316;11.558;2022-12-24T12:04:20;1.83;;;0.40;;
30287;SDS011;17103;48.316;11.558;2022-12-24T12:18:38;2.38;;;0.40;;
30287;SDS011;17103;48.316;11.558;2022-12-24T12:21:13;2.88;;;0.60;;
30287;SDS011;17103;48.316;11.558;2022-12-24T12:23:51;3.03;;;0.43;;
30287;SDS011;17103;48.316;11.558;2022-12-24T12:26:29;2.28;;;0.50;;
30287;SDS011;17103;48.316;11.558;2022-12-24T12:31:41;4.10;;;0.60;;
30287;SDS011;17103;48.316;11.558;2022-12-24T12:36:46;3.45;;;0.50;;
30287;SDS011;17103;48.316;11.558;2022-12-24T12:39:16;2.38;;;0.50;;
30287;SDS011;17103;48.316;11.558;2022-12-24T12:50:16;2.35;;;0.40;;
30287;SDS011;17103;48.316;11.558;2022-12-24T12:55:41;3.42;;;0.70;;
30287;SDS011;17103;48.316;11.558;2022-12-24T13:10:39;3.30;;;0.47;;
30287;SDS011;17103;48.316;11.558;2022-12-24T13:22:17;1.85;;;0.57;;
30287;SDS011;17103;48.316;11.558;2022-12-24T13:24:59;1.90;;;0.40;;
30287;SDS011;17103;48.316;11.558;2022-12-24T13:27:25;2.88;;;1.02;;
30287;SDS011;17103;48.316;11.558;2022-12-24T13:34:54;2.90;;;0.70;;
30287;SDS011;17103;48.316;11.558;2022-12-24T13:45:46;1.88;;;0.32;;
30287;SDS011;17103;48.316;11.558;2022-12-24T13:53:56;2.35;;;0.85;;
30287;SDS011;17103;48.316;11.558;2022-12-24T13:56:30;0.93;;;0.43;;
30287;SDS011;17103;48.316;11.558;2022-12-24T14:01:59;3.65;;;0.93;;
30287;SDS011;17103;48.316;11.558;2022-12-24T14:04:31;1.27;;;0.38;;
30287;SDS011;17103;48.316;11.558;2022-12-24T14:07:08;1.75;;;0.30;;
30287;SDS011;17103;48.316;11.558;2022-12-24T14:09:35;1.92;;;0.60;;
30287;SDS011;17103;48.316;11.558;2022-12-24T14:14:35;1.52;;;0.50;;
30287;SDS011;17103;48.316;11.558;2022-12-24T14:19:51;2.53;;;0.80;;
30287;SDS011;17103;48.316;11.558;2022-12-24T14:22:32;1.55;;;0.40;;
30287;SDS011;17103;48.316;11.558;2022-12-24T14:27:55;2.72;;;1.40;;
30287;SDS011;17103;48.316;11.558;2022-12-24T14:30:26;3.45;;;1.27;;
30287;SDS011;17103;48.316;11.558;2022-12-24T14:32:55;1.27;;;0.60;;
30287;SDS011;17103;48.316;11.558;2022-12-24T14:38:16;2.03;;;0.50;;
30287;SDS011;17103;48.316;11.558;2022-12-24T14:48:56;2.40;;;1.10;;
30287;SDS011;17103;48.316;11.558;2022-12-24T14:51:38;5.55;;;1.60;;
30287;SDS011;17103;48.316;11.558;2022-12-24T14:59:51;2.83;;;0.80;;
30287;SDS011;17103;48.316;11.558;2022-12-24T15:05:29;4.25;;;2.30;;
30287;SDS011;17103;48.316;11.558;2022-12-24T15:08:03;5.88;;;1.33;;
30287;SDS011;17103;48.316;11.558;2022-12-24T15:10:45;21.95;;;13.18;;
30287;SDS011;17103;48.316;11.558;2022-12-24T15:13:27;23.83;;;15.32;;
30287;SDS011;17103;48.316;11.558;2022-12-24T15:16:07;39.42;;;23.67;;
30287;SDS011;17103;48.316;11.558;2022-12-24T15:18:46;4.82;;;3.03;;
30287;SDS011;17103;48.316;11.558;2022-12-24T15:21:23;2.70;;;0.98;;
30287;SDS011;17103;48.316;11.558;2022-12-24T15:23:58;11.25;;;1.58;;
30287;SDS011;17103;48.316;11.558;2022-12-24T15:26:31;1.52;;;0.80;;
30287;SDS011;17103;48.316;11.558;2022-12-24T15:29:05;2.13;;;0.77;;
30287;SDS011;17103;48.316;11.558;2022-12-24T15:31:43;7.72;;;1.40;;
30287;SDS011;17103;48.316;11.558;2022-12-24T15:37:17;7.05;;;2.83;;
30287;SDS011;17103;48.316;11.558;2022-12-24T15:39:43;4.47;;;1.95;;
30287;SDS011;17103;48.316;11.558;2022-12-24T15:42:23;5.88;;;3.75;;
30287;SDS011;17103;48.316;11.558;2022-12-24T15:44:57;10.93;;;6.40;;
30287;SDS011;17103;48.316;11.558;2022-12-24T15:47:37;21.73;;;12.15;;
30287;SDS011;17103;48.316;11.558;2022-12-24T15:53:01;8.80;;;5.50;;
30287;SDS011;17103;48.316;11.558;2022-12-24T15:55:46;6.32;;;3.60;;
30287;SDS011;17103;48.316;11.558;2022-12-24T15:58:28;10.73;;;5.30;;
30287;SDS011;17103;48.316;11.558;2022-12-24T16:03:56;7.05;;;4.30;;
30287;SDS011;17103;48.316;11.558;2022-12-24T16:06:26;11.32;;;7.70;;
30287;SDS011;17103;48.316;11.558;2022-12-24T16:08:53;14.48;;;10.40;;
30287;SDS011;17103;48.316;11.558;2022-12-24T16:11:34;16.52;;;11.27;;
30287;SDS011;17103;48.316;11.558;2022-12-24T16:14:12;8.55;;;7.07;;
30287;SDS011;17103;48.316;11.558;2022-12-24T16:16:44;9.20;;;7.30;;
30287;SDS011;17103;48.316;11.558;2022-12-24T16:19:28;6.40;;;5.00;;
30287;SDS011;17103;48.316;11.558;2022-12-24T16:22:04;2.35;;;2.00;;
30287;SDS011;17103;48.316;11.558;2022-12-24T16:24:52;3.53;;;1.20;;
30287;SDS011;17103;48.316;11.558;2022-12-24T16:27:19;2.78;;;0.85;;
30287;SDS011;17103;48.316;11.558;2022-12-24T16:29:45;2.45;;;0.90;;
30287;SDS011;17103;48.316;11.558;2022-12-24T16:35:02;3.10;;;1.20;;
30287;SDS011;17103;48.316;11.558;2022-12-24T16:37:40;5.28;;;2.33;;
30287;SDS011;17103;48.316;11.558;2022-12-24T16:40:11;4.68;;;2.28;;
30287;SDS011;17103;48.316;11.558;2022-12-24T16:42:43;4.43;;;2.20;;
30287;SDS011;17103;48.316;11.558;2022-12-24T16:45:31;4.93;;;1.65;;
30287;SDS011;17103;48.316;11.558;2022-12-24T16:48:07;8.93;;;1.60;;
30287;SDS011;17103;48.316;11.558;2022-12-24T16:53:13;4.55;;;1.88;;
30287;SDS011;17103;48.316;11.558;2022-12-24T16:55:45;4.00;;;1.30;;
30287;SDS011;17103;48.316;11.558;2022-12-24T16:58:28;3.05;;;1.67;;
30287;SDS011;17103;48.316;11.558;2022-12-24T17:01:05;3.92;;;1.73;;
30287;SDS011;17103;48.316;11.558;2022-12-24T17:03:32;3.40;;;1.58;;
30287;SDS011;17103;48.316;11.558;2022-12-24T17:06:06;4.78;;;1.90;;
30287;SDS011;17103;48.316;11.558;2022-12-24T17:08:38;3.22;;;1.52;;
30287;SDS011;17103;48.316;11.558;2022-12-24T17:11:03;3.63;;;1.90;;
30287;SDS011;17103;48.316;11.558;2022-12-24T17:13:29;3.78;;;2.00;;
30287;SDS011;17103;48.316;11.558;2022-12-24T17:15:55;3.20;;;1.75;;
30287;SDS011;17103;48.316;11.558;2022-12-24T17:18:22;7.90;;;4.70;;
30287;SDS011;17103;48.316;11.558;2022-12-24T17:20:58;12.82;;;6.68;;
30287;SDS011;17103;48.316;11.558;2022-12-24T17:23:24;6.18;;;3.72;;
30287;SDS011;17103;48.316;11.558;2022-12-24T17:28:22;2.83;;;1.95;;
30287;SDS011;17103;48.316;11.558;2022-12-24T17:30:56;3.28;;;1.58;;
30287;SDS011;17103;48.316;11.558;2022-12-24T17:33:22;3.55;;;1.92;;
30287;SDS011;17103;48.316;11.558;2022-12-24T17:35:50;5.28;;;1.35;;
30287;SDS011;17103;48.316;11.558;2022-12-24T17:38:18;3.13;;;1.15;;
30287;SDS011;17103;48.316;11.558;2022-12-24T17:40:47;2.65;;;1.80;;
30287;SDS011;17103;48.316;11.558;2022-12-24T17:43:15;3.00;;;1.70;;
30287;SDS011;17103;48.316;11.558;2022-12-24T17:45:41;1.65;;;0.77;;
30287;SDS011;17103;48.316;11.558;2022-12-24T17:48:07;3.72;;;1.30;;
30287;SDS011;17103;48.316;11.558;2022-12-24T17:50:45;2.22;;;0.70;;
30287;SDS011;17103;48.316;11.558;2022-12-24T17:53:17;1.98;;;1.00;;
30287;SDS011;17103;48.316;11.558;2022-12-24T17:55:49;1.60;;;0.70;;
30287;SDS011;17103;48.316;11.558;2022-12-24T17:58:17;3.00;;;1.30;;
30287;SDS011;17103;48.316;11.558;2022-12-24T18:00:46;2.00;;;0.93;;
30287;SDS011;17103;48.316;11.558;2022-12-24T18:03:17;3.38;;;0.88;;
30287;SDS011;17103;48.316;11.558;2022-12-24T18:05:44;2.58;;;0.77;;
30287;SDS011;17103;48.316;11.558;2022-12-24T18:08:19;1.83;;;1.25;;
30287;SDS011;17103;48.316;11.558;2022-12-24T18:10:48;5.55;;;1.92;;
30287;SDS011;17103;48.316;11.558;2022-12-24T18:13:17;3.65;;;1.75;;
30287;SDS011;17103;48.316;11.558;2022-12-24T18:15:42;2.95;;;1.00;;
30287;SDS011;17103;48.316;11.558;2022-12-24T18:18:15;2.28;;;1.10;;
30287;SDS011;17103;48.316;11.558;2022-12-24T18:20:42;3.33;;;1.00;;
30287;SDS011;17103;48.316;11.558;2022-12-24T18:23:07;3.50;;;1.10;;
30287;SDS011;17103;48.316;11.558;2022-12-24T18:25:33;2.85;;;1.10;;
30287;SDS011;17103;48.316;11.558;2022-12-24T18:28:00;3.40;;;1.38;;
30287;SDS011;17103;48.316;11.558;2022-12-24T18:30:35;3.15;;;2.40;;
30287;SDS011;17103;48.316;11.558;2022-12-24T18:33:04;3.80;;;2.25;;
30287;SDS011;17103;48.316;11.558;2022-12-24T18:35:30;3.33;;;2.00;;
30287;SDS011;17103;48.316;11.558;2022-12-24T18:40:29;5.30;;;2.67;;
30287;SDS011;17103;48.316;11.558;2022-12-24T18:42:58;4.40;;;2.30;;
30287;SDS011;17103;48.316;11.558;2022-12-24T18:45:23;6.18;;;2.55;;
30287;SDS011;17103;48.316;11.558;2022-12-24T18:47:50;2.97;;;2.58;;
30287;SDS011;17103;48.316;11.558;2022-12-24T18:50:18;3.50;;;2.75;;
30287;SDS011;17103;48.316;11.558;2022-12-24T18:52:45;2.80;;;1.30;;
30287;SDS011;17103;48.316;11.558;2022-12-24T18:55:15;2.38;;;1.80;;
30287;SDS011;17103;48.316;11.558;2022-12-24T18:57:43;4.45;;;2.38;;
30287;SDS011;17103;48.316;11.558;2022-12-24T19:00:11;4.03;;;2.55;;
30287;SDS011;17103;48.316;11.558;2022-12-24T19:02:37;3.30;;;2.63;;
30287;SDS011;17103;48.316;11.558;2022-12-24T19:07:34;6.78;;;2.40;;
30287;SDS011;17103;48.316;11.558;2022-12-24T19:10:03;4.60;;;3.42;;
30287;SDS011;17103;48.316;11.558;2022-12-24T19:12:45;6.90;;;5.47;;
30287;SDS011;17103;48.316;11.558;2022-12-24T19:15:14;4.95;;;3.10;;
30287;SDS011;17103;48.316;11.558;2022-12-24T19:17:40;7.35;;;4.47;;
30287;SDS011;17103;48.316;11.558;2022-12-24T19:20:19;10.45;;;6.95;;
30287;SDS011;17103;48.316;11.558;2022-12-24T19:22:46;11.55;;;7.15;;
30287;SDS011;17103;48.316;11.558;2022-12-24T19:25:22;17.00;;;10.15;;
30287;SDS011;17103;48.316;11.558;2022-12-24T19:27:55;15.25;;;8.75;;
30287;SDS011;17103;48.316;11.558;2022-12-24T19:30:20;11.85;;;7.68;;
30287;SDS011;17103;48.316;11.558;2022-12-24T19:32:50;16.80;;;11.05;;
30287;SDS011;17103;48.316;11.558;2022-12-24T19:35:21;21.38;;;12.43;;
30287;SDS011;17103;48.316;11.558;2022-12-24T19:38:04;18.27;;;11.40;;
30287;SDS011;17103;48.316;11.558;2022-12-24T19:40:34;11.88;;;8.48;;
30287;SDS011;17103;48.316;11.558;2022-12-24T19:43:09;13.52;;;7.55;;